KGNR

Greenville Airport

Maine, USA
METAR KGNR 211556Z AUTO 31013G22KT M19/M24 A2947 RMK AO1 PK WND 31026/1516 SLP016 T11941244
Observed Flight Rules
Jan-21 @ 15:56 UTC (22 minutes ago)
Wind
310° at 13 knots
 Gusting to 22 knots
Temperatures Readings
Current -19°C / -2°F
Dewpoint -24°C / -11°F
Humidity 65%
Altimeter 29.47" Hg
Pressure 1001.6 hPa
Elevation 427
METAR KGNR 211556Z AUTO 31013G22KT M19/M24 A2947 RMK AO1 PK WND 31026/1516 SLP016 T11941244
Observed Flight Rules
Jan-21 @ 15:56 UTC
(22 minutes ago)
Wind
310° at 13 knots
 Gusting to 22 knots
Temperature Dewpoint
-19°C / -2°F -24°C / -11°F
Humidity Altimeter Pressure
65% 29.47" Hg 1001.6 hPa